Latest Weather Observations for Giles*

IDW60801

Issued at 3:33 am WST Friday 19 January 2018 (issued every 30 minutes, with the page automatically refreshed every 10 minutes)

About weather observations | Map of weather stations | Latest weather observations for WA | Other Formats
Station Details ID: 013017 Name: GILES METEOROLOGICAL OFFICE Lat: -25.03 Lon: 128.30 Height: 598.0 m
Data from the previous 72 hours. | See also: Recent months at Giles*

* Giles observations are collected in the South Australia time zone, which includes daylight saving in the summer period. Therefore, Rain since 9am value is with respect to South Australia local time.

Date/Time
WST
Temp
°C
App
Temp
°C
Dew
Point
°C
Rel
Hum
%
Delta-T
°C
Wind Press
QNH
hPa
Press
MSL
hPa
Rain since
9am
mm
Dir  Spd
km/h
Gust
km/h
Spd
kts
Gust
kts
19/03:00am 26.5 25.8 11.9 40 8.6 N 7 11 4 6 1010.8 1005.9 0.0
19/02:30am 26.1 26.7 12.0 41 8.3 CALM 0 0 0 0 1010.6 1005.6 0.0
19/02:00am 26.2 26.9 12.2 41 8.3 CALM 0 0 0 0 1010.8 1005.9 0.0
19/01:30am 27.0 27.2 11.7 38 9.0 SE 2 6 1 3 1010.8 1005.9 0.0
19/01:00am 26.7 26.9 11.8 39 8.8 ENE 2 11 1 6 1010.9 1006.0 0.0
19/12:30am 29.6 28.5 9.9 29 11.4 SSE 6 7 3 4 1011.0 1006.1 0.0
19/12:00am 28.6 27.6 10.3 32 10.6 SSE 6 7 3 4 1011.1 1006.2 0.0
 
Date/Time
WST
Temp
°C
App
Temp
°C
Dew
Point
°C
Rel
Hum
%
Delta-T
°C
Wind Press
QNH
hPa
Press
MSL
hPa
Rain since
9am
mm
Dir  Spd
km/h
Gust
km/h
Spd
kts
Gust
kts
18/11:30pm 30.4 28.5 10.4 29 11.7 NNE 11 17 6 9 1011.0 1006.1 0.0
18/11:00pm 31.5 27.7 8.9 24 13.0 NNE 19 26 10 14 1011.2 1006.3 0.0
18/10:30pm 32.1 27.5 8.3 23 13.6 NNE 22 35 12 19 1011.3 1006.4 0.0
18/10:00pm 30.2 28.9 10.1 28 11.7 NE 7 9 4 5 1011.3 1006.4 0.0
18/09:30pm 31.2 29.6 10.2 27 12.3 ENE 9 13 5 7 1011.3 1006.4 0.0
18/09:00pm 30.5 28.0 9.6 27 12.1 ENE 13 15 7 8 1011.1 1006.2 0.0
18/08:30pm 30.7 29.2 10.7 29 11.8 E 9 11 5 6 1010.8 1005.9 0.0
18/08:00pm 31.6 29.5 9.8 26 12.7 ENE 11 13 6 7 1010.5 1005.5 0.0
18/07:30pm 32.9 30.7 9.4 23 13.7 ENE 11 13 6 7 1010.2 1005.2 0.0
18/07:00pm 33.4 31.4 10.3 24 13.7 NE 11 13 6 7 1009.8 1004.9 0.0
18/06:30pm 34.6 32.9 9.7 21 14.7 ENE 9 11 5 6 1009.5 1004.6 0.0
18/06:00pm 36.0 33.3 7.4 17 16.4 E 11 17 6 9 1009.2 1004.2 0.0
18/05:30pm 36.9 33.7 7.0 16 17.1 ENE 13 17 7 9 1009.1 1004.1 0.0
18/05:00pm 37.3 35.4 7.5 16 17.2 ENE 7 13 4 7 1008.9 1003.9 0.0
18/04:30pm 38.0 35.1 6.5 14 17.9 SE 11 20 6 11 1008.7 1003.7 0.0
18/04:00pm 37.6 35.1 6.6 15 17.7 NE 9 17 5 9 1008.7 1003.7 0.0
18/03:30pm 38.3 34.0 5.1 13 18.6 SE 17 22 9 12 1008.8 1003.8 0.0
18/03:00pm 38.1 35.4 3.5 12 18.9 NW 7 13 4 7 1009.1 1004.1 0.0
18/02:30pm 38.2 34.4 5.9 14 18.3 NNE 15 24 8 13 1009.3 1004.4 0.0
18/02:00pm 37.9 33.4 6.9 15 17.8 N 20 33 11 18 1009.5 1004.6 0.0
18/01:30pm 37.8 33.5 7.9 16 17.4 NNE 20 33 11 18 1009.7 1004.8 0.0
18/01:00pm 38.0 33.6 8.9 17 17.2 NNE 22 35 12 19 1010.0 1005.1 0.0
18/12:30pm 37.3 32.2 7.8 16 17.1 NNE 24 39 13 21 1010.3 1005.3 0.0
18/12:00pm 36.6 32.1 10.0 20 15.9 NNE 24 37 13 20 1010.6 1005.6 0.0
18/11:30am 36.5 32.5 10.6 21 15.6 NNE 22 35 12 19 1010.7 1005.7 0.0
18/11:00am 36.1 32.5 10.4 21 15.4 NE 20 39 11 21 1011.0 1006.1 0.0
18/10:30am 35.5 31.6 10.7 22 14.9 NNE 22 33 12 18 1011.3 1006.4 0.0
18/10:00am 34.3 29.7 11.0 24 14.0 NNE 26 39 14 21 1011.5 1006.6 0.0
18/09:30am 33.5 28.9 11.2 25 13.4 NNE 26 37 14 20 1011.5 1006.6 0.0
18/09:00am 33.3 28.3 11.1 25 13.3 N 28 44 15 24 1011.4 1006.5 0.0
18/08:30am 32.1 26.2 10.6 26 12.7 NNE 32 43 17 23 1011.5 1006.6 0.0
18/08:00am 31.5 25.0 10.4 27 12.4 N 35 46 19 25 1011.4 1006.5 0.0
18/07:34am 30.6 24.6 10.2 28 11.9 NNE 32 50 17 27 1011.4 1006.5 0.0
18/07:30am 31.0 26.0 11.1 29 11.8 NNE 28 41 15 22 1011.4 1006.5 0.0
18/07:00am 30.2 24.1 10.6 29 11.5 NNE 33 50 18 27 1011.4 1006.5 0.0
18/06:40am 29.8 23.3 10.2 29 11.4 NNE 35 54 19 29 1011.3 1006.4 0.0
18/06:30am 29.3 22.4 10.2 30 11.1 NNE 37 54 20 29 1011.4 1006.5 0.0
18/06:00am 28.8 23.1 9.9 30 10.9 NNE 30 50 16 27 1011.2 1006.3 0.0
18/05:53am 28.8 23.6 10.2 31 10.8 NNE 28 46 15 25 1011.3 1006.4 0.0
18/05:30am 28.8 22.3 9.1 29 11.2 NNE 33 46 18 25 1011.1 1006.2 0.0
18/05:00am 29.0 22.1 8.7 28 11.5 NNE 35 57 19 31 1010.6 1005.6 0.0
18/04:30am 28.8 22.9 7.6 26 11.8 NNE 28 39 15 21 1010.3 1005.3 0.0
18/04:00am 28.9 25.1 6.0 23 12.4 ENE 15 26 8 14 1010.0 1005.1 0.0
18/03:30am 29.3 24.0 -0.6 14 14.5 ENE 17 22 9 12 1009.8 1004.9 0.0
18/03:00am 26.5 22.0 2.4 21 12.1 E 15 17 8 9 1009.4 1004.5 0.0
18/02:30am 28.3 23.5 0.3 16 13.7 E 15 17 8 9 1009.4 1004.5 0.0
18/02:00am 28.4 23.5 -0.3 15 13.9 E 15 19 8 10 1009.4 1004.5 0.0
18/01:30am 28.8 23.4 -1.0 14 14.3 ENE 17 20 9 11 1009.5 1004.6 0.0
18/01:00am 28.5 23.2 -0.9 14 14.1 E 17 20 9 11 1009.5 1004.6 0.0
18/12:30am 28.9 23.5 -1.2 14 14.4 E 17 19 9 10 1009.6 1004.7 0.0
18/12:00am 28.8 23.4 -1.0 14 14.3 E 17 20 9 11 1009.8 1004.9 0.0
 
Date/Time
WST
Temp
°C
App
Temp
°C
Dew
Point
°C
Rel
Hum
%
Delta-T
°C
Wind Press
QNH
hPa
Press
MSL
hPa
Rain since
9am
mm
Dir  Spd
km/h
Gust
km/h
Spd
kts
Gust
kts
17/11:30pm 29.4 24.0 -1.2 13 14.7 ENE 17 20 9 11 1010.0 1005.1 0.0
17/11:00pm 29.7 24.3 -1.3 13 14.9 ENE 17 19 9 10 1010.3 1005.3 0.0
17/10:30pm 29.2 23.9 -0.9 14 14.5 E 17 19 9 10 1010.4 1005.4 0.0
17/10:00pm 25.6 21.5 4.3 25 11.0 E 15 19 8 10 1010.4 1005.4 0.0
17/09:30pm 26.2 22.4 4.1 24 11.4 E 13 15 7 8 1010.2 1005.2 0.0
17/09:00pm 26.5 22.8 4.7 24 11.4 ESE 13 15 7 8 1010.0 1005.1 0.0
17/08:30pm 26.8 23.2 5.2 25 11.4 ESE 13 15 7 8 1009.7 1004.8 0.0
17/08:00pm 29.5 25.4 2.3 17 13.9 ENE 13 17 7 9 1009.5 1004.6 0.0
17/07:30pm 29.8 25.2 1.4 16 14.3 E 15 17 8 9 1009.3 1004.4 0.0
17/07:00pm 30.5 25.9 1.5 15 14.7 ESE 15 17 8 9 1009.2 1004.2 0.0
17/06:30pm 32.3 27.6 0.6 13 16.0 SE 15 17 8 9 1009.0 1004.0 0.0
17/06:00pm 34.5 29.5 -1.4 10 17.8 SE 15 20 8 11 1008.8 1003.8 0.0
17/05:30pm 36.0 30.3 -3.9 8 19.1 SE 17 22 9 12 1008.7 1003.7 0.0
17/05:00pm 36.5 31.1 -4.5 7 19.6 ESE 15 19 8 10 1008.3 1003.4 0.0
17/04:30pm 36.9 30.8 -4.2 7 19.7 SE 19 28 10 15 1008.3 1003.4 0.0
17/04:00pm 37.1 32.6 -3.5 7 19.8 SE 11 26 6 14 1008.3 1003.4 0.0
17/03:30pm 36.6 33.5 -3.0 8 19.4 SW 4 15 2 8 1008.5 1003.5 0.0
17/03:00pm 36.4 31.5 -3.7 7 19.4 E 13 19 7 10 1008.6 1003.6 0.0
17/02:30pm 37.0 33.3 -3.3 7 19.6 N 7 13 4 7 1008.7 1003.7 0.0
17/02:00pm 36.3 32.0 -5.2 7 19.6 NNE 9 17 5 9 1009.0 1004.0 0.0
17/01:30pm 36.9 33.7 -0.6 9 19.1 ESE 6 17 3 9 1009.4 1004.5 0.0
17/01:00pm 36.2 30.9 -3.9 7 19.3 NE 15 28 8 15 1009.5 1004.6 0.0
17/12:30pm 35.7 30.6 -2.3 9 18.7 NE 15 28 8 15 1009.8 1004.9 0.0
17/12:00pm 35.3 30.0 -3.6 8 18.7 NNE 15 26 8 14 1010.2 1005.2 0.0
17/11:30am 35.0 29.3 -3.5 8 18.5 NE 17 28 9 15 1010.5 1005.5 0.0
17/11:00am 35.4 29.8 -3.3 8 18.7 NE 17 26 9 14 1010.8 1005.9 0.0
17/10:30am 34.7 28.8 -1.9 9 18.0 NNE 19 26 10 14 1011.1 1006.2 0.0
17/10:00am 34.2 27.9 -4.0 8 18.1 NE 20 35 11 19 1011.4 1006.5 0.0
17/09:30am 33.9 26.9 -3.9 8 17.9 NNE 24 33 13 18 1011.5 1006.6 0.0
17/09:00am 33.6 26.2 -3.8 9 17.7 ENE 26 35 14 19 1011.6 1006.7 0.0
17/08:30am 32.7 25.1 -5.1 8 17.4 NE 26 39 14 21 1011.6 1006.7 0.0
17/08:00am 31.7 25.9 -0.1 13 15.8 ENE 20 37 11 20 1011.5 1006.6 0.0
17/07:30am 30.6 25.8 2.4 16 14.5 E 17 24 9 13 1011.5 1006.6 0.0
17/07:00am 28.4 23.7 3.4 20 12.9 E 17 22 9 12 1011.4 1006.5 0.0
17/06:30am 27.1 22.9 3.9 22 12.0 E 15 20 8 11 1011.3 1006.4 0.0
17/06:00am 26.4 21.6 2.8 21 11.9 E 17 22 9 12 1011.1 1006.2 -
17/05:30am 24.2 19.6 3.6 26 10.4 E 17 20 9 11 1011.0 1006.1 -
17/05:00am 24.1 19.3 2.4 24 10.7 E 17 20 9 11 1010.9 1006.0 -
17/04:30am 23.4 18.7 3.1 26 10.1 E 17 20 9 11 1010.6 1005.6 -
17/04:00am 23.2 19.0 3.7 28 9.8 E 15 17 8 9 1010.4 1005.4 -
17/03:30am 21.8 18.2 6.8 38 7.9 ESE 15 17 8 9 1010.3 1005.3 -
17/03:00am 22.7 19.0 6.4 35 8.6 E 15 17 8 9 1010.3 1005.3 -
17/02:30am 22.7 19.0 6.1 34 8.7 E 15 17 8 9 1010.6 1005.6 -
17/02:00am 23.4 19.5 5.5 31 9.3 E 15 17 8 9 1011.0 1006.1 -
17/01:30am 24.9 21.1 3.9 25 10.7 E 13 17 7 9 1011.1 1006.2 -
17/01:00am 24.6 20.9 4.6 27 10.3 E 13 17 7 9 1011.2 1006.3 -
17/12:30am 24.5 20.9 5.0 28 10.1 E 13 15 7 8 1011.5 1006.6 -
17/12:00am 24.1 20.7 6.1 31 9.5 ESE 13 13 7 7 1011.7 1006.8 -
 
Date/Time
WST
Temp
°C
App
Temp
°C
Dew
Point
°C
Rel
Hum
%
Delta-T
°C
Wind Press
QNH
hPa
Press
MSL
hPa
Rain since
9am
mm
Dir  Spd
km/h
Gust
km/h
Spd
kts
Gust
kts
16/11:30pm 24.9 21.8 5.7 29 10.1 E 11 13 6 7 1012.1 1007.1 -
16/11:00pm 24.2 21.4 7.1 33 9.2 E 11 11 6 6 1012.3 1007.3 -
16/10:30pm 24.7 - 6.8 31 9.6 - - - - - 1012.2 1007.2 -
16/09:30pm 25.6 22.7 6.3 29 10.3 E 11 13 6 7 1012.5 1007.6 -
16/09:00pm 26.9 23.6 4.7 24 11.6 E 11 15 6 8 1012.5 1007.6 -
16/08:30pm 27.3 23.2 4.2 22 12.0 ESE 15 19 8 10 1012.3 1007.3 -
16/08:00pm 26.5 23.2 6.4 27 10.8 ESE 13 15 7 8 1012.3 1007.3 -
16/07:30pm 27.4 24.7 5.7 25 11.6 E 9 11 5 6 1012.0 1007.0 -
16/07:00pm 27.8 24.5 4.6 22 12.2 SE 11 13 6 7 1011.7 1006.8 -
16/06:30pm 29.0 25.4 2.9 18 13.4 SE 11 13 6 7 1011.5 1006.6 0.0
16/06:00pm 31.1 25.7 -1.7 12 15.8 ESE 17 24 9 13 1011.3 1006.4 -
16/05:30pm 32.3 25.4 -5.9 8 17.3 ESE 22 32 12 17 1011.0 1006.1 -
16/05:00pm 32.8 27.6 -2.6 10 17.0 ESE 15 24 8 13 1010.9 1006.0 -
16/04:30pm 32.9 25.6 -6.8 7 17.8 ESE 24 32 13 17 1010.8 1005.9 -
16/04:00pm 33.7 26.1 -5.1 8 18.0 SE 26 35 14 19 1010.6 1005.6 -
16/03:30pm 34.0 27.1 -5.9 7 18.3 ESE 22 33 12 18 1010.6 1005.6 -
16/03:00pm 33.8 28.1 -7.3 7 18.4 ESE 15 32 8 17 1010.7 1005.7 -
16/02:30pm 33.6 27.7 -6.1 7 18.1 ESE 17 32 9 17 1011.1 1006.2 -
16/02:00pm 33.7 26.8 -5.8 7 18.1 ESE 22 35 12 19 1011.3 1006.4 -
16/01:30pm 33.6 26.9 -8.2 6 18.4 E 20 32 11 17 1011.6 1006.7 -
16/01:00pm 32.9 27.9 -3.9 9 17.3 E 13 20 7 11 1012.2 1007.2 -
16/12:30pm 32.0 25.5 -6.4 8 17.2 E 20 32 11 17 1012.6 1007.7 0.0
16/12:00pm 31.9 25.6 -4.4 9 16.8 ENE 20 32 11 17 1012.9 1008.0 0.0
16/11:30am 31.0 24.1 -6.4 8 16.6 NE 22 35 12 19 1013.4 1008.5 -
16/11:00am 30.3 22.9 -7.7 8 16.4 ENE 24 35 13 19 1014.1 1009.2 -
16/10:30am 29.9 22.0 -8.6 7 16.3 NE 26 43 14 23 1014.5 1009.6 -
16/10:00am 29.6 21.4 -8.4 8 16.1 ENE 28 35 15 19 1014.7 1009.8 -
16/09:30am 30.3 21.2 -9.1 7 16.6 ENE 32 46 17 25 1014.6 1009.7 -
16/09:27am 30.3 21.9 -9.9 7 16.7 ENE 28 46 15 25 1014.6 1009.7 -
16/09:00am 30.4 21.4 -8.0 8 16.5 ENE 32 43 17 23 1014.6 1009.7 -
16/08:30am 28.9 21.5 -7.0 9 15.5 ENE 24 39 13 21 1014.7 1009.8 -
16/08:00am 27.8 21.9 -2.4 13 14.0 ENE 19 28 10 15 1014.9 1010.0 0.0
16/07:30am 26.9 23.0 1.3 19 12.6 E 11 20 6 11 1014.8 1009.9 0.0
16/07:00am 24.8 21.9 4.9 27 10.3 ESE 9 13 5 7 1014.8 1009.9 0.0
16/06:30am 23.3 21.3 7.2 35 8.6 SE 7 9 4 5 1014.7 1009.8 0.0
16/06:00am 21.1 18.9 6.3 38 7.7 ENE 7 9 4 5 1014.4 1009.5 0.0
16/05:30am 20.6 17.7 4.7 35 8.0 ENE 9 13 5 7 1014.2 1009.3 0.0
16/05:00am 19.9 16.7 5.3 38 7.4 ENE 11 13 6 7 1013.8 1008.8 0.0
16/04:30am 18.8 15.9 6.3 44 6.4 E 11 13 6 7 1013.5 1008.6 0.0
16/04:00am 18.4 16.0 7.0 47 5.9 ENE 9 13 5 7 1013.2 1008.3 0.0
16/03:30am 17.7 15.4 9.1 57 4.6 SE 11 13 6 7 1012.9 1008.0 0.0
16/03:00am 18.8 16.7 8.3 50 5.6 ESE 9 11 5 6 1013.1 1008.2 0.0
16/02:30am 19.3 17.3 8.5 49 5.8 ESE 9 11 5 6 1013.2 1008.3 0.0
16/02:00am 19.6 17.6 8.6 49 5.9 ESE 9 11 5 6 1012.9 1008.0 0.0
16/01:30am 20.2 17.7 8.3 46 6.4 E 11 11 6 6 1013.1 1008.2 0.0

Other Formats:

Comma delimited format used in spreadsheet applications
http://www.bom.gov.au/fwo/IDW60801/IDW60801.94461.axf

JavaScript Object Notation format (JSON) in row-major order
http://www.bom.gov.au/fwo/IDW60801/IDW60801.94461.json